createdAt,value
2022-11-03T00:00:16.510Z,96745.47
2022-11-03T00:02:42.881Z,96743.97
2022-11-03T00:05:09.243Z,96738.66
2022-11-03T00:07:35.578Z,96746.13
2022-11-03T00:10:01.909Z,96740.81
2022-11-03T00:12:28.234Z,96741.34
2022-11-03T00:14:54.578Z,96743.72
2022-11-03T00:17:20.904Z,96744.38
2022-11-03T00:19:47.249Z,96744.97
2022-11-03T00:22:13.577Z,96741.63
2022-11-03T00:24:39.909Z,96743.22
2022-11-03T00:27:06.225Z,96738.69
2022-11-03T00:29:32.557Z,96736.81
2022-11-03T00:31:58.880Z,96744.22
2022-11-03T00:34:25.209Z,96741.06
2022-11-03T00:36:51.547Z,96732.97
2022-11-03T00:39:17.880Z,96728.22
2022-11-03T00:41:44.206Z,96731.94
2022-11-03T00:44:10.693Z,96728.22
2022-11-03T00:46:37.253Z,96731.38
2022-11-03T00:49:03.600Z,96731.88
2022-11-03T00:51:29.938Z,96723.88
2022-11-03T00:53:56.271Z,96723.06
2022-11-03T00:56:22.609Z,96722.28
2022-11-03T00:58:48.944Z,96716.16
2022-11-03T01:01:15.391Z,96711.09
2022-11-03T01:03:41.759Z,96713.78
2022-11-03T01:06:08.090Z,96718.59
2022-11-03T01:08:34.419Z,96718.00
2022-11-03T01:11:00.743Z,96705.75
2022-11-03T01:13:27.076Z,96707.84
2022-11-03T01:15:53.403Z,96703.28
2022-11-03T01:18:19.733Z,96703.97
2022-11-03T01:20:46.070Z,96701.78
2022-11-03T01:23:12.398Z,96693.91
2022-11-03T01:25:38.727Z,96697.69
2022-11-03T01:30:36.269Z,96687.59
2022-11-03T01:33:02.745Z,96689.16
2022-11-03T01:35:29.212Z,96687.00
2022-11-03T01:37:55.538Z,96682.25
2022-11-03T01:40:21.858Z,96678.50
2022-11-03T01:42:48.183Z,96676.13
2022-11-03T01:45:14.516Z,96672.09
2022-11-03T01:47:40.845Z,96669.44
2022-11-03T01:50:07.175Z,96666.16
2022-11-03T01:52:33.498Z,96665.66
2022-11-03T01:54:59.819Z,96672.56
2022-11-03T01:57:26.150Z,96667.81
2022-11-03T01:59:52.474Z,96669.50
2022-11-03T02:02:18.888Z,96668.63
2022-11-03T02:04:45.305Z,96667.34
2022-11-03T02:07:11.633Z,96650.84
2022-11-03T02:09:37.953Z,96654.00
2022-11-03T02:12:04.287Z,96642.81
2022-11-03T02:14:30.618Z,96649.25
2022-11-03T02:16:56.965Z,96640.97
2022-11-03T02:19:23.312Z,96638.59
2022-11-03T02:21:49.646Z,96627.91
2022-11-03T02:24:15.972Z,96624.97
2022-11-03T02:26:42.294Z,96619.91
2022-11-03T02:29:08.617Z,96615.66
2022-11-03T02:31:34.954Z,96614.38
2022-11-03T02:34:01.298Z,96617.25
2022-11-03T02:36:27.636Z,96608.75
2022-11-03T02:38:53.959Z,96604.38
2022-11-03T02:41:20.282Z,96601.78
2022-11-03T02:43:46.604Z,96602.59
2022-11-03T02:46:12.928Z,96592.72
2022-11-03T02:48:39.262Z,96592.13
2022-11-03T02:51:05.587Z,96590.56
2022-11-03T02:53:31.914Z,96582.06
2022-11-03T02:55:58.243Z,96579.91
2022-11-03T02:58:24.582Z,96572.97
2022-11-03T03:00:50.957Z,96579.91
2022-11-03T03:03:17.332Z,96582.56
2022-11-03T03:05:43.671Z,96569.78
2022-11-03T03:08:10.002Z,96561.78
2022-11-03T03:10:36.329Z,96566.06
2022-11-03T03:13:02.662Z,96558.06
2022-11-03T03:15:29.008Z,96556.75
2022-11-03T03:17:55.335Z,96553.22
2022-11-03T03:20:21.698Z,96559.63
2022-11-03T03:22:48.018Z,96554.78
2022-11-03T03:25:14.347Z,96559.03
2022-11-03T03:27:40.678Z,96545.69
2022-11-03T03:30:06.996Z,96537.78
2022-11-03T03:32:33.382Z,96537.22
2022-11-03T03:34:59.710Z,96537.47
2022-11-03T03:37:26.049Z,96525.53
2022-11-03T03:39:52.379Z,96524.34
2022-11-03T03:42:18.723Z,96530.28
2022-11-03T03:44:45.042Z,96530.28
2022-11-03T03:47:11.394Z,96529.47
2022-11-03T03:49:37.735Z,96525.53
2022-11-03T03:52:04.072Z,96524.44
2022-11-03T03:54:30.410Z,96519.59
2022-11-03T03:56:56.745Z,96526.03
2022-11-03T03:59:23.081Z,96523.38
2022-11-03T04:01:49.508Z,96520.72
2022-11-03T04:04:15.888Z,96515.88
2022-11-03T04:06:42.213Z,96514.38
2022-11-03T04:09:08.550Z,96514.06
2022-11-03T04:11:34.885Z,96514.06
2022-11-03T04:14:01.223Z,96517.03
2022-11-03T04:16:27.559Z,96521.00
2022-11-03T04:18:53.886Z,96518.63
2022-11-03T04:21:20.214Z,96518.63
2022-11-03T04:23:46.549Z,96517.03
2022-11-03T04:26:12.871Z,96517.31
2022-11-03T04:28:39.216Z,96520.19
2022-11-03T04:31:05.593Z,96516.44
2022-11-03T04:33:31.918Z,96510.81
2022-11-03T04:35:58.268Z,96503.09
2022-11-03T04:38:24.613Z,96501.81
2022-11-03T04:40:53.699Z,96504.19
2022-11-03T04:43:21.103Z,96506.34
2022-11-03T04:45:47.430Z,96501.81
2022-11-03T04:48:13.756Z,96502.63
2022-11-03T04:50:45.558Z,96501.53
2022-11-03T04:53:12.991Z,96491.97
2022-11-03T04:55:39.327Z,96497.28
2022-11-03T04:58:05.651Z,96496.69
2022-11-03T05:00:31.976Z,96481.56
2022-11-03T05:02:58.293Z,96483.06
2022-11-03T05:05:24.634Z,96473.56
2022-11-03T05:07:50.953Z,96466.16
2022-11-03T05:10:17.278Z,96471.22
2022-11-03T05:12:43.601Z,96466.97
2022-11-03T05:15:09.925Z,96448.75
2022-11-03T05:17:36.255Z,96445.03
2022-11-03T05:20:02.589Z,96444.13
2022-11-03T05:22:28.911Z,96444.53
2022-11-03T05:24:55.252Z,96439.78
2022-11-03T05:27:21.611Z,96437.78
2022-11-03T05:29:47.938Z,96429.63
2022-11-03T05:32:14.263Z,96426.16
2022-11-03T05:34:40.587Z,96418.16
2022-11-03T05:37:06.916Z,96416.44
2022-11-03T05:39:33.247Z,96417.44
2022-11-03T05:41:59.603Z,96418.66
2022-11-03T05:44:25.925Z,96414.31
2022-11-03T05:46:52.257Z,96408.66
2022-11-03T05:49:18.582Z,96412.31
2022-11-03T05:51:44.914Z,96406.06
2022-11-03T05:54:14.403Z,96409.16
2022-11-03T05:56:43.412Z,96413.09
2022-11-03T05:59:09.743Z,96412.09
2022-11-03T06:01:36.165Z,96399.53
2022-11-03T06:04:02.539Z,96395.50
2022-11-03T06:06:32.241Z,96390.09
2022-11-03T06:08:59.015Z,96401.22
2022-11-03T06:11:25.338Z,96388.78
2022-11-03T06:13:51.685Z,96388.69
2022-11-03T06:16:18.023Z,96386.19
2022-11-03T06:18:44.354Z,96379.63
2022-11-03T06:21:10.705Z,96381.03
2022-11-03T06:23:37.039Z,96381.84
2022-11-03T06:26:03.375Z,96386.78
2022-11-03T06:28:29.736Z,96389.34
2022-11-03T06:30:56.069Z,96388.38
2022-11-03T06:33:22.410Z,96384.63
2022-11-03T06:35:48.751Z,96370.06
2022-11-03T06:38:15.117Z,96375.72
2022-11-03T06:40:41.464Z,96381.25
2022-11-03T06:43:08.234Z,96385.63
2022-11-03T06:45:34.767Z,96385.88
2022-11-03T06:48:01.099Z,96386.84
2022-11-03T06:50:27.469Z,96382.38
2022-11-03T06:52:53.834Z,96381.91
2022-11-03T06:55:20.161Z,96389.09
2022-11-03T06:57:46.504Z,96394.72
2022-11-03T07:00:32.935Z,96388.59
2022-11-03T07:02:59.159Z,96374.50
2022-11-03T07:05:25.508Z,96374.00
2022-11-03T07:07:51.833Z,96385.16
2022-11-03T07:10:18.180Z,96375.56
2022-11-03T07:12:44.518Z,96393.16
2022-11-03T07:15:10.874Z,96390.78
2022-11-03T07:17:37.217Z,96387.81
2022-11-03T07:20:03.566Z,96390.38
2022-11-03T07:22:29.895Z,96388.19
2022-11-03T07:24:56.228Z,96393.34
2022-11-03T07:27:22.573Z,96390.97
2022-11-03T07:29:48.904Z,96383.66
2022-11-03T07:32:15.249Z,96382.50
2022-11-03T07:34:41.590Z,96379.31
2022-11-03T07:37:08.003Z,96374.50
2022-11-03T07:39:34.699Z,96373.59
2022-11-03T07:42:01.091Z,96370.63
2022-11-03T07:44:27.422Z,96377.09
2022-11-03T07:46:53.776Z,96378.06
2022-11-03T07:49:20.114Z,96376.25
2022-11-03T07:51:46.471Z,96370.50
2022-11-03T07:54:12.807Z,96377.59
2022-11-03T07:56:39.161Z,96373.22
2022-11-03T07:59:05.548Z,96387.56
2022-11-03T08:01:31.922Z,96384.91
2022-11-03T08:03:58.309Z,96382.69
2022-11-03T08:06:24.644Z,96386.94
2022-11-03T08:08:51.077Z,96388.53
2022-11-03T08:11:17.452Z,96387.41
2022-11-03T08:13:43.782Z,96384.44
2022-11-03T08:16:10.111Z,96395.13
2022-11-03T08:18:36.451Z,96382.56
2022-11-03T08:21:02.787Z,96381.47
2022-11-03T08:23:29.619Z,96378.78
2022-11-03T08:25:56.148Z,96388.41
2022-11-03T08:28:22.480Z,96379.59
2022-11-03T08:30:48.829Z,96368.13
2022-11-03T08:33:15.212Z,96370.78
2022-11-03T08:35:41.590Z,96368.63
2022-11-03T08:38:08.262Z,96360.59
2022-11-03T08:40:34.801Z,96357.13
2022-11-03T08:43:01.148Z,96355.25
2022-11-03T08:45:27.489Z,96362.78
2022-11-03T08:47:53.831Z,96361.69
2022-11-03T08:50:20.176Z,96354.75
2022-11-03T08:52:46.504Z,96357.94
2022-11-03T08:55:12.834Z,96356.06
2022-11-03T08:57:39.179Z,96356.38
2022-11-03T09:00:05.537Z,96351.03
2022-11-03T09:02:31.910Z,96348.03
2022-11-03T09:04:58.315Z,96347.25
2022-11-03T09:07:24.803Z,96331.22
2022-11-03T09:12:37.467Z,96317.56
2022-11-03T09:15:03.792Z,96316.75
2022-11-03T09:17:30.124Z,96316.75
2022-11-03T09:19:56.451Z,96316.00
2022-11-03T09:22:22.776Z,96310.34
2022-11-03T09:24:49.104Z,96293.22
2022-11-03T09:27:15.463Z,96284.09
2022-11-03T09:30:10.886Z,96291.81
2022-11-03T09:32:28.102Z,96295.59
2022-11-03T09:34:54.446Z,96287.28
2022-11-03T09:37:20.789Z,96276.59
2022-11-03T09:39:47.123Z,96260.56
2022-11-03T09:42:13.461Z,96249.88
2022-11-03T09:44:39.799Z,96252.56
2022-11-03T09:47:06.134Z,96246.09
2022-11-03T09:49:32.521Z,96246.09
2022-11-03T09:51:58.857Z,96259.47
2022-11-03T09:54:25.307Z,96259.94
2022-11-03T09:56:51.633Z,96254.59
2022-11-03T09:59:17.959Z,96240.75
2022-11-03T10:01:44.378Z,96244.72
2022-11-03T10:04:10.764Z,96254.59
2022-11-03T10:06:37.102Z,96238.28
2022-11-03T10:09:03.446Z,96219.56
2022-11-03T10:11:29.780Z,96210.75
2022-11-03T10:13:56.111Z,96204.34
2022-11-03T10:16:22.450Z,96202.75
2022-11-03T10:18:48.777Z,96201.97
2022-11-03T10:21:15.110Z,96199.63
2022-11-03T10:23:41.433Z,96188.94
2022-11-03T10:26:07.761Z,96185.16
2022-11-03T10:28:34.099Z,96183.91
2022-11-03T10:31:15.725Z,96180.44
2022-11-03T10:33:42.161Z,96159.88
2022-11-03T10:36:08.548Z,96153.75
2022-11-03T10:38:34.879Z,96139.28
2022-11-03T10:41:01.216Z,96136.16
2022-11-03T10:43:27.598Z,96125.47
2022-11-03T10:45:53.926Z,96122.31
2022-11-03T10:48:20.280Z,96109.28
2022-11-03T10:50:46.594Z,96112.75
2022-11-03T10:53:12.995Z,96116.97
2022-11-03T10:58:05.724Z,96115.09
2022-11-03T11:00:32.218Z,96105.66
2022-11-03T11:02:59.670Z,96105.19
2022-11-03T11:05:26.004Z,96102.50
2022-11-03T11:07:52.381Z,96102.06
2022-11-03T11:10:18.742Z,96094.03
2022-11-03T11:12:45.075Z,96094.81
2022-11-03T11:15:11.407Z,96084.94
2022-11-03T11:17:37.737Z,96070.31
2022-11-03T11:20:04.072Z,96064.19
2022-11-03T11:22:30.408Z,96059.31
2022-11-03T11:24:56.745Z,96064.19
2022-11-03T11:27:23.119Z,96049.72
2022-11-03T11:29:49.488Z,96033.69
2022-11-03T11:32:15.831Z,96026.81
2022-11-03T11:34:42.157Z,96014.56
2022-11-03T11:37:08.483Z,96013.75
2022-11-03T11:39:34.815Z,96009.97
2022-11-03T11:42:01.154Z,96004.34
2022-11-03T11:44:27.488Z,96005.44
2022-11-03T11:46:53.810Z,95998.53
2022-11-03T11:49:20.148Z,95989.25
2022-11-03T11:51:46.494Z,95978.75
2022-11-03T11:54:20.041Z,95975.59
2022-11-03T11:56:46.385Z,95967.25
2022-11-03T11:59:12.714Z,95958.16
2022-11-03T12:01:39.094Z,95958.16
2022-11-03T12:04:05.618Z,95958.50
2022-11-03T12:06:32.098Z,95947.81
2022-11-03T12:08:58.462Z,95932.88
2022-11-03T12:11:24.862Z,95928.47
2022-11-03T12:13:51.234Z,95916.84
2022-11-03T12:16:17.573Z,95912.63
2022-11-03T12:18:50.193Z,95901.63
2022-11-03T12:21:16.789Z,95904.75
2022-11-03T12:23:43.111Z,95894.84
2022-11-03T12:26:09.431Z,95895.66
2022-11-03T12:28:35.773Z,95877.28
2022-11-03T12:31:02.122Z,95877.91
2022-11-03T12:33:28.447Z,95877.09
2022-11-03T12:35:54.803Z,95875.72
2022-11-03T12:38:21.128Z,95881.06
2022-11-03T12:40:47.621Z,95866.09
2022-11-03T12:43:13.974Z,95858.09
2022-11-03T12:45:40.307Z,95858.75
2022-11-03T12:48:06.630Z,95861.88
2022-11-03T12:50:32.961Z,95857.66
2022-11-03T12:52:59.305Z,95851.19
2022-11-03T12:55:25.635Z,95849.66
2022-11-03T12:57:51.970Z,95844.75
2022-11-03T13:00:18.279Z,95832.50
2022-11-03T13:02:44.732Z,95817.59
2022-11-03T13:05:11.163Z,95826.06
2022-11-03T13:07:37.493Z,95834.06
2022-11-03T13:10:03.830Z,95837.84
2022-11-03T13:12:30.155Z,95856.38
2022-11-03T13:14:56.490Z,95851.19
2022-11-03T13:17:22.815Z,95852.00
2022-11-03T13:19:54.327Z,95852.75
2022-11-03T13:22:20.988Z,95854.97
2022-11-03T13:24:47.321Z,95848.53
2022-11-03T13:27:13.665Z,95860.31
2022-11-03T13:29:39.988Z,95849.47
2022-11-03T13:32:06.313Z,95858.75
2022-11-03T13:34:32.656Z,95848.06
2022-11-03T13:36:58.996Z,95844.31
2022-11-03T13:39:25.330Z,95853.41
2022-11-03T13:41:51.671Z,95855.63
2022-11-03T13:44:18.017Z,95849.16
2022-11-03T13:46:44.354Z,95844.16
2022-11-03T13:51:57.007Z,95842.72
2022-11-03T13:59:56.988Z,95827.81
2022-11-03T14:05:11.652Z,95817.13
2022-11-03T14:07:38.120Z,95814.47
2022-11-03T14:10:04.618Z,95810.69
2022-11-03T14:12:31.047Z,95800.63
2022-11-03T14:14:57.375Z,95802.22
2022-11-03T14:17:23.698Z,95791.53
2022-11-03T14:19:52.730Z,95789.31
2022-11-03T14:22:19.859Z,95782.41
2022-11-03T14:24:46.169Z,95782.41
2022-11-03T14:27:12.498Z,95770.19
2022-11-03T14:29:38.810Z,95767.69
2022-11-03T14:32:05.148Z,95741.44
2022-11-03T14:34:31.568Z,95744.13
2022-11-03T14:36:58.032Z,95751.03
2022-11-03T14:39:24.396Z,95744.13
2022-11-03T14:41:50.719Z,95735.00
2022-11-03T14:44:17.056Z,95726.53
2022-11-03T14:46:43.373Z,95726.69
2022-11-03T14:49:09.720Z,95724.31
2022-11-03T14:51:36.038Z,95725.88
2022-11-03T14:54:02.367Z,95706.75
2022-11-03T14:56:28.702Z,95709.88
2022-11-03T14:58:55.033Z,95701.41
2022-11-03T15:01:21.465Z,95690.72
2022-11-03T15:03:47.860Z,95698.25
2022-11-03T15:06:14.223Z,95685.41
2022-11-03T15:08:40.555Z,95684.28
2022-11-03T15:11:06.884Z,95674.25
2022-11-03T15:13:35.266Z,95664.69
2022-11-03T15:16:04.210Z,95664.69
2022-11-03T15:18:30.575Z,95672.69
2022-11-03T15:20:56.900Z,95686.47
2022-11-03T15:26:09.546Z,95667.78
2022-11-03T15:28:35.876Z,95660.91
2022-11-03T15:31:02.199Z,95652.41
2022-11-03T15:33:28.527Z,95654.00
2022-11-03T15:35:54.948Z,95649.31
2022-11-03T15:38:21.366Z,95655.56
2022-11-03T15:40:47.686Z,95648.78
2022-11-03T15:43:14.009Z,95660.91
2022-11-03T15:45:40.325Z,95657.00
2022-11-03T15:48:06.659Z,95657.75
2022-11-03T15:50:32.990Z,95651.34
2022-11-03T15:52:59.327Z,95668.44
2022-11-03T15:55:25.677Z,95665.75
2022-11-03T15:57:51.999Z,95667.66
2022-11-03T16:00:18.342Z,95670.66
2022-11-03T16:02:44.756Z,95632.50
2022-11-03T16:05:11.227Z,95642.38
2022-11-03T16:07:37.571Z,95643.19
2022-11-03T16:10:03.902Z,95640.19
2022-11-03T16:12:30.235Z,95629.03
2022-11-03T16:14:56.562Z,95635.47
2022-11-03T16:17:22.905Z,95631.69
2022-11-03T16:19:49.230Z,95633.28
2022-11-03T16:22:15.561Z,95634.69
2022-11-03T16:24:41.891Z,95598.13
2022-11-03T16:27:08.222Z,95597.78
2022-11-03T16:29:34.549Z,95607.69
2022-11-03T16:32:00.875Z,95584.44
2022-11-03T16:34:27.210Z,95587.44
2022-11-03T16:36:53.546Z,95583.19
2022-11-03T16:39:19.875Z,95556.06
2022-11-03T16:41:46.207Z,95570.31
2022-11-03T16:44:12.545Z,95582.09
2022-11-03T16:46:38.891Z,95569.84
2022-11-03T16:49:05.230Z,95580.97
2022-11-03T16:51:31.568Z,95592.31
2022-11-03T16:53:57.890Z,95585.09
2022-11-03T16:56:24.231Z,95582.09
2022-11-03T16:58:50.563Z,95574.75
2022-11-03T17:01:16.968Z,95575.81
2022-11-03T17:03:43.400Z,95575.81
2022-11-03T17:06:09.746Z,95589.16
2022-11-03T17:08:52.405Z,95582.75
2022-11-03T17:11:19.453Z,95578.97
2022-11-03T17:13:45.798Z,95575.19
2022-11-03T17:16:12.118Z,95584.34
2022-11-03T17:18:38.458Z,95589.63
2022-11-03T17:21:04.801Z,95587.78
2022-11-03T17:23:31.139Z,95561.75
2022-11-03T17:25:57.468Z,95570.78
2022-11-03T17:28:23.796Z,95561.75
2022-11-03T17:30:50.132Z,95575.28
2022-11-03T17:33:16.457Z,95560.38
2022-11-03T17:35:42.793Z,95574.09
2022-11-03T17:38:09.659Z,95561.75
2022-11-03T17:40:36.246Z,95556.94
2022-11-03T17:43:02.563Z,95559.13
2022-11-03T17:45:28.897Z,95549.25
2022-11-03T17:47:55.241Z,95539.66
2022-11-03T17:50:21.563Z,95535.44
2022-11-03T17:52:47.896Z,95521.38
2022-11-03T17:55:14.211Z,95511.91
2022-11-03T17:57:40.535Z,95521.28
2022-11-03T18:00:06.858Z,95517.63
2022-11-03T18:02:33.259Z,95510.88
2022-11-03T18:04:59.635Z,95524.22
2022-11-03T18:07:25.969Z,95533.13
2022-11-03T18:09:52.306Z,95529.53
2022-11-03T18:12:18.641Z,95549.03
2022-11-03T18:14:44.971Z,95554.03
2022-11-03T18:17:11.312Z,95520.09
2022-11-03T18:19:37.655Z,95526.22
2022-11-03T18:22:03.991Z,95546.66
2022-11-03T18:24:30.314Z,95526.88
2022-11-03T18:26:56.643Z,95517.09
2022-11-03T18:29:22.966Z,95493.56
2022-11-03T18:31:49.307Z,95484.44
2022-11-03T18:34:15.632Z,95489.31
2022-11-03T18:36:41.958Z,95510.22
2022-11-03T18:39:08.295Z,95503.31
2022-11-03T18:41:34.621Z,95506.44
2022-11-03T18:44:00.946Z,95503.75
2022-11-03T18:46:27.271Z,95504.09
2022-11-03T18:48:53.600Z,95502.69
2022-11-03T18:51:19.923Z,95492.75
2022-11-03T18:53:46.460Z,95505.34
2022-11-03T18:56:12.822Z,95512.56
2022-11-03T18:58:39.145Z,95510.69
2022-11-03T19:01:05.539Z,95508.78
2022-11-03T19:03:31.890Z,95519.34
2022-11-03T19:05:58.219Z,95581.81
2022-11-03T19:08:24.551Z,95589.50
2022-11-03T19:10:50.875Z,95590.28
2022-11-03T19:13:17.220Z,95579.94
2022-11-03T19:15:43.554Z,95559.81
2022-11-03T19:18:10.309Z,95555.13
2022-11-03T19:20:36.889Z,95553.38
2022-11-03T19:23:03.223Z,95553.81
2022-11-03T19:25:29.546Z,95549.13
2022-11-03T19:27:55.877Z,95544.59
2022-11-03T19:30:22.210Z,95549.13
2022-11-03T19:32:48.547Z,95541.13
2022-11-03T19:35:14.884Z,95565.16
2022-11-03T19:37:41.204Z,95570.50
2022-11-03T19:40:07.537Z,95586.06
2022-11-03T19:42:33.871Z,95578.50
2022-11-03T19:45:00.213Z,95593.41
2022-11-03T19:47:28.343Z,95592.47
2022-11-03T19:49:58.002Z,95594.06
2022-11-03T19:52:24.331Z,95597.97
2022-11-03T19:54:50.675Z,95588.72
2022-11-03T19:57:17.007Z,95594.97
2022-11-03T19:59:43.336Z,95603.31
2022-11-03T20:02:09.829Z,95598.75
2022-11-03T20:04:36.314Z,95615.41
2022-11-03T20:07:02.644Z,95608.50
2022-11-03T20:12:00.215Z,95619.16
2022-11-03T20:14:26.539Z,95622.31
2022-11-03T20:16:52.861Z,95637.69
2022-11-03T20:19:19.174Z,95632.66
2022-11-03T20:21:45.504Z,95623.09
2022-11-03T20:24:11.829Z,95639.13
2022-11-03T20:26:38.151Z,95635.97
2022-11-03T20:29:04.479Z,95641.47
2022-11-03T20:31:30.802Z,95643.66
2022-11-03T20:33:57.138Z,95643.66
2022-11-03T20:36:23.454Z,95664.53
2022-11-03T20:38:49.773Z,95678.84
2022-11-03T20:41:16.108Z,95697.69
2022-11-03T20:43:42.446Z,95721.41
2022-11-03T20:46:08.771Z,95731.63
2022-11-03T20:48:35.102Z,95731.63
2022-11-03T20:51:01.422Z,95744.16
2022-11-03T20:53:27.758Z,95757.50
2022-11-03T20:55:54.096Z,95766.78
2022-11-03T20:58:20.429Z,95750.31
2022-11-03T21:00:46.819Z,95743.84
2022-11-03T21:03:21.157Z,95759.88
2022-11-03T21:05:59.474Z,95761.44
2022-11-03T21:08:25.799Z,95761.91
2022-11-03T21:10:52.129Z,95773.69
2022-11-03T21:13:18.470Z,95787.50
2022-11-03T21:16:10.656Z,95785.91
2022-11-03T21:18:31.098Z,95787.50
2022-11-03T21:20:57.422Z,95796.28
2022-11-03T21:23:23.758Z,95806.63
2022-11-03T21:25:50.086Z,95819.34
2022-11-03T21:28:16.419Z,95828.00
2022-11-03T21:30:42.749Z,95836.31
2022-11-03T21:33:09.068Z,95849.97
2022-11-03T21:35:35.402Z,95864.41
2022-11-03T21:38:01.734Z,95852.19
2022-11-03T21:40:28.077Z,95848.41
2022-11-03T21:42:54.403Z,95856.09
2022-11-03T21:45:20.740Z,95856.09
2022-11-03T21:47:47.067Z,95847.78
2022-11-03T21:50:13.403Z,95854.22
2022-11-03T21:52:39.741Z,95853.75
2022-11-03T21:55:06.067Z,95863.63
2022-11-03T21:57:32.391Z,95862.88
2022-11-03T21:59:58.736Z,95848.41
2022-11-03T22:02:25.128Z,95837.72
2022-11-03T22:04:51.491Z,95829.25
2022-11-03T22:07:17.826Z,95836.19
2022-11-03T22:09:44.143Z,95837.25
2022-11-03T22:12:10.469Z,95841.50
2022-11-03T22:14:36.805Z,95837.72
2022-11-03T22:17:03.136Z,95799.56
2022-11-03T22:19:29.478Z,95772.13
2022-11-03T22:21:55.807Z,95774.47
2022-11-03T22:24:22.131Z,95800.38
2022-11-03T22:26:48.527Z,95810.56
2022-11-03T22:29:14.876Z,95830.03
2022-11-03T22:31:41.212Z,95833.50
2022-11-03T22:34:07.539Z,95851.06
2022-11-03T22:36:33.885Z,95833.50
2022-11-03T22:39:00.203Z,95814.81
2022-11-03T22:41:26.550Z,95826.25
2022-11-03T22:43:52.887Z,95814.81
2022-11-03T22:46:19.205Z,95816.69
2022-11-03T22:48:45.531Z,95823.16
2022-11-03T22:51:11.866Z,95817.50
2022-11-03T22:53:38.192Z,95828.50
2022-11-03T22:56:04.522Z,95839.94
2022-11-03T22:58:31.115Z,95850.28
2022-11-03T23:00:57.543Z,95849.00
2022-11-03T23:03:23.903Z,95853.72
2022-11-03T23:05:50.234Z,95850.28
2022-11-03T23:08:16.601Z,95854.66
2022-11-03T23:10:42.953Z,95846.22
2022-11-03T23:13:09.743Z,95848.06
2022-11-03T23:15:36.325Z,95859.38
2022-11-03T23:18:02.670Z,95866.94
2022-11-03T23:20:29.000Z,95871.00
2022-11-03T23:22:55.331Z,95883.59
2022-11-03T23:25:21.642Z,95854.69
2022-11-03T23:27:47.961Z,95846.22
2022-11-03T23:30:14.285Z,95851.56
2022-11-03T23:32:40.616Z,95855.31
2022-11-03T23:35:06.943Z,95848.41
2022-11-03T23:37:33.265Z,95859.09
2022-11-03T23:39:59.594Z,95859.09
2022-11-03T23:42:25.909Z,95863.78
2022-11-03T23:44:52.233Z,95867.56
2022-11-03T23:47:18.549Z,95865.22
2022-11-03T23:49:44.875Z,95865.97
2022-11-03T23:52:11.205Z,95865.97
2022-11-03T23:54:37.526Z,95862.22
2022-11-03T23:57:03.850Z,95864.91
2022-11-03T23:59:30.228Z,95859.56
